createdAt,value
2023-04-18T00:01:33.217Z,69.18
2023-04-18T00:03:59.758Z,69.82
2023-04-18T00:06:26.168Z,69.84
2023-04-18T00:08:52.530Z,69.23
2023-04-18T00:11:19.228Z,69.91
2023-04-18T00:13:45.528Z,70.06
2023-04-18T00:16:11.820Z,69.79
2023-04-18T00:18:38.260Z,69.74
2023-04-18T00:21:04.554Z,70.77
2023-04-18T00:23:30.844Z,70.65
2023-04-18T00:25:57.158Z,70.46
2023-04-18T00:28:23.526Z,70.76
2023-04-18T00:30:49.876Z,70.47
2023-04-18T00:33:16.211Z,70.64
2023-04-18T00:35:42.525Z,70.33
2023-04-18T00:38:08.831Z,70.53
2023-04-18T00:40:35.152Z,69.90
2023-04-18T00:43:01.450Z,70.20
2023-04-18T00:45:27.829Z,70.24
2023-04-18T00:47:54.168Z,70.04
2023-04-18T00:50:20.474Z,69.91
2023-04-18T00:52:46.762Z,70.59
2023-04-18T00:55:13.082Z,70.81
2023-04-18T00:57:39.402Z,70.48
2023-04-18T01:00:05.735Z,70.58
2023-04-18T01:02:32.143Z,70.51
2023-04-18T01:04:58.543Z,70.69
2023-04-18T01:07:24.870Z,70.17
2023-04-18T01:09:51.186Z,70.47
2023-04-18T01:12:17.480Z,69.42
2023-04-18T01:14:43.776Z,69.84
2023-04-18T01:17:10.133Z,69.24
2023-04-18T01:19:36.433Z,69.48
2023-04-18T01:22:02.734Z,69.47
2023-04-18T01:24:29.059Z,69.69
2023-04-18T01:26:55.364Z,69.19
2023-04-18T01:29:21.664Z,68.81
2023-04-18T01:31:48.073Z,69.41
2023-04-18T01:34:14.696Z,69.60
2023-04-18T01:36:41.179Z,70.00
2023-04-18T01:39:07.512Z,69.89
2023-04-18T01:41:33.818Z,70.56
2023-04-18T01:44:00.250Z,70.87
2023-04-18T01:46:26.664Z,70.91
2023-04-18T01:48:52.982Z,71.54
2023-04-18T01:51:19.288Z,71.97
2023-04-18T01:53:45.601Z,71.30
2023-04-18T01:56:11.912Z,71.36
2023-04-18T01:58:38.256Z,71.60
2023-04-18T02:01:04.710Z,71.43
2023-04-18T02:03:31.247Z,71.96
2023-04-18T02:05:57.639Z,71.98
2023-04-18T02:08:23.960Z,71.49
2023-04-18T02:10:50.257Z,71.82
2023-04-18T02:13:16.563Z,71.75
2023-04-18T02:15:42.879Z,72.13
2023-04-18T02:18:09.181Z,72.52
2023-04-18T02:20:35.491Z,71.94
2023-04-18T02:23:01.917Z,72.29
2023-04-18T02:25:28.213Z,72.68
2023-04-18T02:27:54.507Z,72.15
2023-04-18T02:30:20.827Z,72.44
2023-04-18T02:32:47.179Z,72.12
2023-04-18T02:35:13.519Z,72.79
2023-04-18T02:37:39.842Z,72.83
2023-04-18T02:40:06.135Z,72.04
2023-04-18T02:42:32.441Z,72.41
2023-04-18T02:44:58.758Z,72.63
2023-04-18T02:47:25.048Z,72.84
2023-04-18T02:49:51.360Z,72.38
2023-04-18T02:52:17.696Z,72.59
2023-04-18T02:54:44.001Z,72.71
2023-04-18T02:57:10.370Z,72.22
2023-04-18T02:59:36.683Z,72.05
2023-04-18T03:02:03.030Z,72.16
2023-04-18T03:04:29.386Z,71.47
2023-04-18T03:06:55.715Z,71.10
2023-04-18T03:09:22.033Z,71.18
2023-04-18T03:11:48.346Z,70.40
2023-04-18T03:14:14.882Z,70.67
2023-04-18T03:16:41.325Z,70.25
2023-04-18T03:19:07.628Z,70.18
2023-04-18T03:21:33.947Z,69.48
2023-04-18T03:24:00.237Z,69.89
2023-04-18T03:26:26.537Z,69.77
2023-04-18T03:28:52.898Z,70.44
2023-04-18T03:31:19.211Z,69.92
2023-04-18T03:33:45.570Z,70.00
2023-04-18T03:36:11.912Z,70.88
2023-04-18T03:38:38.193Z,71.52
2023-04-18T03:41:04.484Z,73.79
2023-04-18T03:43:30.783Z,74.01
2023-04-18T03:45:57.120Z,74.65
2023-04-18T03:48:23.470Z,74.97
2023-04-18T03:50:49.779Z,75.13
2023-04-18T03:53:16.068Z,75.18
2023-04-18T03:55:42.360Z,74.30
2023-04-18T03:58:08.718Z,74.90
2023-04-18T04:00:35.002Z,75.23
2023-04-18T04:03:01.577Z,75.39
2023-04-18T04:05:28.097Z,74.99
2023-04-18T04:07:54.400Z,75.50
2023-04-18T04:10:20.694Z,75.25
2023-04-18T04:12:47.015Z,75.06
2023-04-18T04:15:13.317Z,74.75
2023-04-18T04:17:39.665Z,74.91
2023-04-18T04:20:06.017Z,74.74
2023-04-18T04:22:32.317Z,75.05
2023-04-18T04:24:58.606Z,75.26
2023-04-18T04:27:24.928Z,75.04
2023-04-18T04:29:51.223Z,75.14
2023-04-18T04:32:17.507Z,75.20
2023-04-18T04:34:43.858Z,75.13
2023-04-18T04:37:10.176Z,75.23
2023-04-18T04:39:36.464Z,75.44
2023-04-18T04:42:02.779Z,74.51
2023-04-18T04:44:29.112Z,75.06
2023-04-18T04:46:55.428Z,75.36
2023-04-18T04:49:21.776Z,75.33
2023-04-18T04:51:48.083Z,75.44
2023-04-18T04:54:14.662Z,75.72
2023-04-18T04:56:41.049Z,75.12
2023-04-18T04:59:07.361Z,74.98
2023-04-18T05:01:33.724Z,76.02
2023-04-18T05:04:00.268Z,75.55
2023-04-18T05:06:26.686Z,76.05
2023-04-18T05:08:52.987Z,76.11
2023-04-18T05:11:19.330Z,75.84
2023-04-18T05:13:45.646Z,76.10
2023-04-18T05:16:11.980Z,75.96
2023-04-18T05:18:38.314Z,75.67
2023-04-18T05:21:04.618Z,75.93
2023-04-18T05:23:30.958Z,75.57
2023-04-18T05:25:58.370Z,75.80
2023-04-18T05:28:24.688Z,76.04
2023-04-18T05:30:51.061Z,76.19
2023-04-18T05:33:17.401Z,76.61
2023-04-18T05:35:43.705Z,76.58
2023-04-18T05:38:09.997Z,76.14
2023-04-18T05:40:36.352Z,75.64
2023-04-18T05:43:02.680Z,75.61
2023-04-18T05:45:28.975Z,75.83
2023-04-18T05:47:55.337Z,75.81
2023-04-18T05:50:21.682Z,75.64
2023-04-18T05:52:47.999Z,75.46
2023-04-18T05:55:14.314Z,74.96
2023-04-18T05:57:40.608Z,75.76
2023-04-18T06:00:06.908Z,75.05
2023-04-18T06:02:33.302Z,75.13
2023-04-18T06:04:59.898Z,75.43
2023-04-18T06:07:26.331Z,75.20
2023-04-18T06:09:52.663Z,75.31
2023-04-18T06:12:18.968Z,73.79
2023-04-18T06:14:45.260Z,73.87
2023-04-18T06:17:11.595Z,74.21
2023-04-18T06:19:37.901Z,74.24
2023-04-18T06:22:04.200Z,73.85
2023-04-18T06:24:31.315Z,74.44
2023-04-18T06:26:57.686Z,73.81
2023-04-18T06:29:23.982Z,73.77
2023-04-18T06:31:50.331Z,73.55
2023-04-18T06:34:16.665Z,74.14
2023-04-18T06:36:42.987Z,73.65
2023-04-18T06:39:09.301Z,73.29
2023-04-18T06:41:35.605Z,73.34
2023-04-18T06:44:03.400Z,73.01
2023-04-18T06:46:30.840Z,71.98
2023-04-18T06:48:57.237Z,71.25
2023-04-18T06:51:23.546Z,70.16
2023-04-18T06:53:49.868Z,69.66
2023-04-18T06:56:16.172Z,68.96
2023-04-18T06:58:42.475Z,69.03
2023-04-18T07:01:08.861Z,69.30
2023-04-18T07:03:35.252Z,70.19
2023-04-18T07:06:01.678Z,68.51
2023-04-18T07:08:28.009Z,69.03
2023-04-18T07:10:54.320Z,68.86
2023-04-18T07:13:20.627Z,69.35
2023-04-18T07:15:46.954Z,68.98
2023-04-18T07:18:16.144Z,69.05
2023-04-18T07:20:46.928Z,68.99
2023-04-18T07:23:13.230Z,69.23
2023-04-18T07:25:39.537Z,68.89
2023-04-18T07:28:05.851Z,68.62
2023-04-18T07:30:32.152Z,67.94
2023-04-18T07:32:58.500Z,67.84
2023-04-18T07:35:24.880Z,66.97
2023-04-18T07:37:51.183Z,66.56
2023-04-18T07:40:17.494Z,66.33
2023-04-18T07:42:43.830Z,66.88
2023-04-18T07:45:10.136Z,67.42
2023-04-18T07:47:36.460Z,67.53
2023-04-18T07:50:02.892Z,66.96
2023-04-18T07:52:29.203Z,66.43
2023-04-18T07:54:55.507Z,66.20
2023-04-18T07:57:21.836Z,65.67
2023-04-18T07:59:48.160Z,65.59
2023-04-18T08:02:14.560Z,64.90
2023-04-18T08:04:41.175Z,65.18
2023-04-18T08:07:07.633Z,64.08
2023-04-18T08:09:33.942Z,64.85
2023-04-18T08:12:00.281Z,65.12
2023-04-18T08:14:26.587Z,64.40
2023-04-18T08:16:52.888Z,65.27
2023-04-18T08:19:19.211Z,63.71
2023-04-18T08:21:45.523Z,62.89
2023-04-18T08:24:11.871Z,63.62
2023-04-18T08:26:38.183Z,63.00
2023-04-18T08:29:04.496Z,63.58
2023-04-18T08:31:30.890Z,63.57
2023-04-18T08:33:57.232Z,63.05
2023-04-18T08:36:23.564Z,62.29
2023-04-18T08:38:49.880Z,60.79
2023-04-18T08:41:16.219Z,61.63
2023-04-18T08:43:42.525Z,60.77
2023-04-18T08:46:08.829Z,60.63
2023-04-18T08:48:35.179Z,60.07
2023-04-18T08:51:01.482Z,60.86
2023-04-18T08:53:27.783Z,59.13
2023-04-18T08:55:54.147Z,58.93
2023-04-18T08:58:20.451Z,59.96
2023-04-18T09:00:46.760Z,59.58
2023-04-18T09:03:13.109Z,59.15
2023-04-18T09:05:39.449Z,57.50
2023-04-18T09:08:05.854Z,58.04
2023-04-18T09:10:32.167Z,57.35
2023-04-18T09:12:58.524Z,56.58
2023-04-18T09:15:24.828Z,57.22
2023-04-18T09:17:51.308Z,57.27
2023-04-18T09:20:17.686Z,56.66
2023-04-18T09:22:44.001Z,58.53
2023-04-18T09:25:10.415Z,56.20
2023-04-18T09:27:36.719Z,55.19
2023-04-18T09:30:03.051Z,56.12
2023-04-18T09:32:29.600Z,57.03
2023-04-18T09:34:56.014Z,56.39
2023-04-18T09:37:22.336Z,57.19
2023-04-18T09:39:48.644Z,56.22
2023-04-18T09:42:14.948Z,55.75
2023-04-18T09:44:41.465Z,55.34
2023-04-18T09:47:07.819Z,54.98
2023-04-18T09:49:34.121Z,53.75
2023-04-18T09:52:00.411Z,53.93
2023-04-18T09:54:26.742Z,53.83
2023-04-18T09:56:53.038Z,54.15
2023-04-18T09:59:21.066Z,54.09
2023-04-18T10:01:47.661Z,53.77
2023-04-18T10:04:14.157Z,51.68
2023-04-18T10:06:40.776Z,53.66
2023-04-18T10:09:07.093Z,53.38
2023-04-18T10:11:33.440Z,54.58
2023-04-18T10:13:59.780Z,52.71
2023-04-18T10:16:26.167Z,51.25
2023-04-18T10:18:52.527Z,51.14
2023-04-18T10:21:18.826Z,50.94
2023-04-18T10:23:45.152Z,51.51
2023-04-18T10:26:11.446Z,52.04
2023-04-18T10:28:39.126Z,52.14
2023-04-18T10:31:05.853Z,51.94
2023-04-18T10:33:32.527Z,51.10
2023-04-18T10:35:59.223Z,51.56
2023-04-18T10:38:25.606Z,50.77
2023-04-18T10:40:51.927Z,52.10
2023-04-18T10:43:18.421Z,51.56
2023-04-18T10:45:44.802Z,51.86
2023-04-18T10:48:11.125Z,50.86
2023-04-18T10:50:37.432Z,51.23
2023-04-18T10:53:03.754Z,49.75
2023-04-18T10:55:30.066Z,47.99
2023-04-18T10:57:56.390Z,47.83
2023-04-18T11:00:22.801Z,48.95
2023-04-18T11:02:49.349Z,49.77
2023-04-18T11:05:15.825Z,48.08
2023-04-18T11:07:42.222Z,47.67
2023-04-18T11:10:08.642Z,48.84
2023-04-18T11:12:36.242Z,47.75
2023-04-18T11:15:02.701Z,47.09
2023-04-18T11:17:29.044Z,49.15
2023-04-18T11:19:55.360Z,50.36
2023-04-18T11:22:21.698Z,47.34
2023-04-18T11:24:48.002Z,47.27
2023-04-18T11:27:14.295Z,48.36
2023-04-18T11:29:40.627Z,48.34
2023-04-18T11:32:07.030Z,48.13
2023-04-18T11:34:33.412Z,48.04
2023-04-18T11:36:59.752Z,46.74
2023-04-18T11:39:26.100Z,47.50
2023-04-18T11:41:52.418Z,47.01
2023-04-18T11:44:18.753Z,47.87
2023-04-18T11:46:45.088Z,48.04
2023-04-18T11:49:11.387Z,48.33
2023-04-18T11:51:37.705Z,47.97
2023-04-18T11:54:04.017Z,46.83
2023-04-18T11:56:30.323Z,48.88
2023-04-18T11:58:56.638Z,47.69
2023-04-18T12:01:22.948Z,48.05
2023-04-18T12:03:49.417Z,48.63
2023-04-18T12:06:15.888Z,47.08
2023-04-18T12:08:42.331Z,47.25
2023-04-18T12:11:08.624Z,47.42
2023-04-18T12:13:34.983Z,48.19
2023-04-18T12:16:01.333Z,46.24
2023-04-18T12:18:27.745Z,46.31
2023-04-18T12:20:54.202Z,46.05
2023-04-18T12:23:20.606Z,47.53
2023-04-18T12:25:46.903Z,48.04
2023-04-18T12:28:13.225Z,48.55
2023-04-18T12:30:39.525Z,47.97
2023-04-18T12:33:05.835Z,48.56
2023-04-18T12:35:32.263Z,48.32
2023-04-18T12:37:58.610Z,47.96
2023-04-18T12:40:24.911Z,47.01
2023-04-18T12:42:51.225Z,48.04
2023-04-18T12:45:17.521Z,48.31
2023-04-18T12:47:43.882Z,49.02
2023-04-18T12:50:11.307Z,48.85
2023-04-18T12:52:37.913Z,48.38
2023-04-18T12:55:04.217Z,49.23
2023-04-18T12:57:31.751Z,48.67
2023-04-18T12:59:58.256Z,48.74
2023-04-18T13:02:24.728Z,49.57
2023-04-18T13:04:51.257Z,50.67
2023-04-18T13:07:17.615Z,49.65
2023-04-18T13:09:43.969Z,48.85
2023-04-18T13:12:10.296Z,49.87
2023-04-18T13:14:36.605Z,48.28
2023-04-18T13:17:03.054Z,48.46
2023-04-18T13:19:29.585Z,49.31
2023-04-18T13:21:55.905Z,49.59
2023-04-18T13:24:22.217Z,49.15
2023-04-18T13:26:48.548Z,49.75
2023-04-18T13:29:15.072Z,48.57
2023-04-18T13:31:41.492Z,48.71
2023-04-18T13:34:07.822Z,49.44
2023-04-18T13:36:34.138Z,49.91
2023-04-18T13:39:00.759Z,49.59
2023-04-18T13:41:27.077Z,48.16
2023-04-18T13:43:53.381Z,47.89
2023-04-18T13:46:19.731Z,48.28
2023-04-18T13:48:46.093Z,47.59
2023-04-18T13:51:12.395Z,48.04
2023-04-18T13:53:38.694Z,48.22
2023-04-18T13:56:05.000Z,48.65
2023-04-18T13:58:31.298Z,47.43
2023-04-18T14:00:57.589Z,48.34
2023-04-18T14:03:24.124Z,48.71
2023-04-18T14:05:50.508Z,48.12
2023-04-18T14:08:16.812Z,48.74
2023-04-18T14:10:43.121Z,50.25
2023-04-18T14:13:09.400Z,49.36
2023-04-18T14:15:35.699Z,49.81
2023-04-18T14:18:02.068Z,49.09
2023-04-18T14:20:28.420Z,48.19
2023-04-18T14:22:54.711Z,48.46
2023-04-18T14:25:21.086Z,47.35
2023-04-18T14:27:47.373Z,46.92
2023-04-18T14:30:13.670Z,48.87
2023-04-18T14:32:39.979Z,47.26
2023-04-18T14:35:06.290Z,47.61
2023-04-18T14:37:32.569Z,48.00
2023-04-18T14:39:58.876Z,48.75
2023-04-18T14:42:25.194Z,49.54
2023-04-18T14:44:51.484Z,49.09
2023-04-18T14:47:17.789Z,48.64
2023-04-18T14:49:44.078Z,49.64
2023-04-18T14:52:10.381Z,49.70
2023-04-18T14:54:36.706Z,49.12
2023-04-18T14:57:02.991Z,49.04
2023-04-18T14:59:29.282Z,48.66
2023-04-18T15:01:55.661Z,49.04
2023-04-18T15:04:22.274Z,48.54
2023-04-18T15:06:48.732Z,48.74
2023-04-18T15:09:15.047Z,49.26
2023-04-18T15:11:41.340Z,49.85
2023-04-18T15:14:07.680Z,50.00
2023-04-18T15:16:34.008Z,49.05
2023-04-18T15:19:00.394Z,49.51
2023-04-18T15:21:26.708Z,50.08
2023-04-18T15:23:53.008Z,49.39
2023-04-18T15:26:19.298Z,49.80
2023-04-18T15:28:45.575Z,50.08
2023-04-18T15:31:11.924Z,49.45
2023-04-18T15:33:38.203Z,50.31
2023-04-18T15:36:04.495Z,50.00
2023-04-18T15:38:32.854Z,49.51
2023-04-18T15:40:59.537Z,49.66
2023-04-18T15:43:25.821Z,47.67
2023-04-18T15:45:52.187Z,47.79
2023-04-18T15:48:18.496Z,48.50
2023-04-18T15:50:44.790Z,48.62
2023-04-18T15:53:11.098Z,48.36
2023-04-18T15:55:37.395Z,48.42
2023-04-18T15:58:03.667Z,49.32
2023-04-18T16:00:29.967Z,49.31
2023-04-18T16:02:56.402Z,50.17
2023-04-18T16:05:22.783Z,50.26
2023-04-18T16:07:49.091Z,50.53
2023-04-18T16:10:15.466Z,49.24
2023-04-18T16:12:41.807Z,49.99
2023-04-18T16:15:08.130Z,49.79
2023-04-18T16:17:34.485Z,49.71
2023-04-18T16:20:00.830Z,50.68
2023-04-18T16:22:27.139Z,50.09
2023-04-18T16:24:53.438Z,51.76
2023-04-18T16:27:19.740Z,50.33
2023-04-18T16:29:46.064Z,50.44
2023-04-18T16:32:12.386Z,50.99
2023-04-18T16:34:38.682Z,50.76
2023-04-18T16:37:05.052Z,51.21
2023-04-18T16:39:31.358Z,51.00
2023-04-18T16:41:57.650Z,51.17
2023-04-18T16:44:23.969Z,50.76
2023-04-18T16:46:50.338Z,50.97
2023-04-18T16:49:16.702Z,51.88
2023-04-18T16:51:43.021Z,51.47
2023-04-18T16:54:09.328Z,50.41
2023-04-18T16:56:35.617Z,50.07
2023-04-18T16:59:01.952Z,50.43
2023-04-18T17:01:28.293Z,51.20
2023-04-18T17:03:54.677Z,50.54
2023-04-18T17:06:21.070Z,51.59
2023-04-18T17:08:47.409Z,51.01
2023-04-18T17:11:13.700Z,51.51
2023-04-18T17:13:40.071Z,52.20
2023-04-18T17:16:06.385Z,52.11
2023-04-18T17:18:32.709Z,52.31
2023-04-18T17:20:59.024Z,52.77
2023-04-18T17:23:25.315Z,53.08
2023-04-18T17:25:51.610Z,53.29
2023-04-18T17:28:17.914Z,53.22
2023-04-18T17:30:44.205Z,53.30
2023-04-18T17:33:10.596Z,53.39
2023-04-18T17:35:37.049Z,52.94
2023-04-18T17:38:03.371Z,53.40
2023-04-18T17:40:29.710Z,53.57
2023-04-18T17:42:56.068Z,52.91
2023-04-18T17:45:22.377Z,53.48
2023-04-18T17:47:48.716Z,53.32
2023-04-18T17:50:15.055Z,53.74
2023-04-18T17:52:41.376Z,53.57
2023-04-18T17:55:07.676Z,54.24
2023-04-18T17:57:33.994Z,54.37
2023-04-18T18:00:00.345Z,54.56
2023-04-18T18:02:26.703Z,55.11
2023-04-18T18:04:53.118Z,54.02
2023-04-18T18:07:19.420Z,54.88
2023-04-18T18:09:45.721Z,54.26
2023-04-18T18:12:12.049Z,54.48
2023-04-18T18:14:38.356Z,54.40
2023-04-18T18:17:04.774Z,54.86
2023-04-18T18:19:31.202Z,54.61
2023-04-18T18:21:57.504Z,55.36
2023-04-18T18:24:23.816Z,55.51
2023-04-18T18:26:51.630Z,55.75
2023-04-18T18:29:18.193Z,55.67
2023-04-18T18:31:44.539Z,56.17
2023-04-18T18:34:10.879Z,56.01
2023-04-18T18:36:37.174Z,55.47
2023-04-18T18:39:03.486Z,56.37
2023-04-18T18:41:29.811Z,56.33
2023-04-18T18:43:56.120Z,56.50
2023-04-18T18:46:22.481Z,55.21
2023-04-18T18:48:48.967Z,55.42
2023-04-18T18:51:15.254Z,55.26
2023-04-18T18:53:41.559Z,55.17
2023-04-18T18:56:07.875Z,55.59
2023-04-18T18:58:34.169Z,55.10
2023-04-18T19:01:00.459Z,54.67
2023-04-18T19:03:26.892Z,54.50
2023-04-18T19:05:53.392Z,55.36
2023-04-18T19:08:19.682Z,55.16
2023-04-18T19:10:46.000Z,54.67
2023-04-18T19:13:12.292Z,55.01
2023-04-18T19:15:38.579Z,55.27
2023-04-18T19:18:04.909Z,54.63
2023-04-18T19:20:31.248Z,54.79
2023-04-18T19:22:57.546Z,54.45
2023-04-18T19:25:23.882Z,55.25
2023-04-18T19:27:50.195Z,55.27
2023-04-18T19:30:16.501Z,54.64
2023-04-18T19:32:42.846Z,55.24
2023-04-18T19:35:09.159Z,54.94
2023-04-18T19:37:35.442Z,54.96
2023-04-18T19:40:01.764Z,54.23
2023-04-18T19:42:28.103Z,54.77
2023-04-18T19:44:54.389Z,55.09
2023-04-18T19:47:20.768Z,54.46
2023-04-18T19:49:47.086Z,54.47
2023-04-18T19:52:13.390Z,54.70
2023-04-18T19:54:39.751Z,54.52
2023-04-18T19:57:06.036Z,54.79
2023-04-18T19:59:32.333Z,55.02
2023-04-18T20:02:01.466Z,55.21
2023-04-18T20:04:29.888Z,54.64
2023-04-18T20:06:56.242Z,54.57
2023-04-18T20:09:22.574Z,55.57
2023-04-18T20:11:48.866Z,55.54
2023-04-18T20:14:15.146Z,55.37
2023-04-18T20:16:41.517Z,55.32
2023-04-18T20:19:07.837Z,55.99
2023-04-18T20:21:34.137Z,56.69
2023-04-18T20:24:00.530Z,56.53
2023-04-18T20:26:26.821Z,56.29
2023-04-18T20:28:53.109Z,56.54
2023-04-18T20:31:19.457Z,57.20
2023-04-18T20:33:45.766Z,56.27
2023-04-18T20:36:12.064Z,56.71
2023-04-18T20:38:38.513Z,57.27
2023-04-18T20:41:04.792Z,58.19
2023-04-18T20:43:31.150Z,58.02
2023-04-18T20:45:57.484Z,58.17
2023-04-18T20:48:23.836Z,58.22
2023-04-18T20:50:50.127Z,58.62
2023-04-18T20:53:16.437Z,58.99
2023-04-18T20:55:42.739Z,58.61
2023-04-18T20:58:09.045Z,58.87
2023-04-18T21:00:35.410Z,59.85
2023-04-18T21:03:01.867Z,59.76
2023-04-18T21:05:28.277Z,60.16
2023-04-18T21:07:54.587Z,60.45
2023-04-18T21:10:20.888Z,60.80
2023-04-18T21:12:47.207Z,61.51
2023-04-18T21:15:13.539Z,61.07
2023-04-18T21:17:39.880Z,60.79
2023-04-18T21:20:06.189Z,61.01
2023-04-18T21:22:32.512Z,62.05
2023-04-18T21:24:58.808Z,62.48
2023-04-18T21:27:25.128Z,62.94
2023-04-18T21:29:51.446Z,62.63
2023-04-18T21:32:17.747Z,62.70
2023-04-18T21:34:44.062Z,63.84
2023-04-18T21:37:10.384Z,63.68
2023-04-18T21:39:36.687Z,63.30
2023-04-18T21:42:02.993Z,63.80
2023-04-18T21:44:29.318Z,64.54
2023-04-18T21:46:55.643Z,64.35
2023-04-18T21:49:21.980Z,63.99
2023-04-18T21:51:48.302Z,65.06
2023-04-18T21:54:14.732Z,64.42
2023-04-18T21:56:41.146Z,64.86
2023-04-18T21:59:07.469Z,65.16
2023-04-18T22:01:33.872Z,65.16
2023-04-18T22:04:00.289Z,65.52
2023-04-18T22:06:26.738Z,65.71
2023-04-18T22:08:53.051Z,66.55
2023-04-18T22:11:19.357Z,65.88
2023-04-18T22:13:45.685Z,65.08
2023-04-18T22:16:12.007Z,65.72
2023-04-18T22:18:38.406Z,65.99
2023-04-18T22:21:04.749Z,65.75
2023-04-18T22:23:31.076Z,66.08
2023-04-18T22:25:57.390Z,66.19
2023-04-18T22:28:23.718Z,65.88
2023-04-18T22:30:50.047Z,66.42
2023-04-18T22:33:16.382Z,66.81
2023-04-18T22:35:42.708Z,66.93
2023-04-18T22:38:09.000Z,67.11
2023-04-18T22:40:35.309Z,66.72
2023-04-18T22:43:01.645Z,67.26
2023-04-18T22:45:27.969Z,67.08
2023-04-18T22:47:54.377Z,66.90
2023-04-18T22:50:20.838Z,67.59
2023-04-18T22:52:47.142Z,67.84
2023-04-18T22:55:13.465Z,67.07
2023-04-18T22:57:39.812Z,67.10
2023-04-18T23:00:06.112Z,67.43
2023-04-18T23:02:32.502Z,67.13
2023-04-18T23:04:58.949Z,66.80
2023-04-18T23:07:25.301Z,67.20
2023-04-18T23:09:51.613Z,67.84
2023-04-18T23:12:17.987Z,67.54
2023-04-18T23:14:44.313Z,67.85
2023-04-18T23:17:10.621Z,67.41
2023-04-18T23:19:36.950Z,68.01
2023-04-18T23:22:03.277Z,68.40
2023-04-18T23:24:29.597Z,67.55
2023-04-18T23:26:55.934Z,67.38
2023-04-18T23:29:22.263Z,67.42
2023-04-18T23:31:48.654Z,66.79
2023-04-18T23:34:15.246Z,67.32
2023-04-18T23:36:41.765Z,67.17
2023-04-18T23:39:08.124Z,67.51
2023-04-18T23:41:34.458Z,67.80
2023-04-18T23:44:00.773Z,68.26
2023-04-18T23:46:27.115Z,68.09
2023-04-18T23:48:53.476Z,67.58
2023-04-18T23:51:19.803Z,67.91
2023-04-18T23:53:46.117Z,67.72
2023-04-18T23:56:12.441Z,68.66
2023-04-18T23:58:38.752Z,68.23
